sensor_id;sensor_type;location;lat;lon;timestamp;temperature;humidity
28725;DHT22;43472;48.980;9.646;2023-07-13T00:00:29;18.50;99.90
28725;DHT22;43472;48.980;9.646;2023-07-13T00:05:32;18.50;99.90
28725;DHT22;43472;48.980;9.646;2023-07-13T00:10:38;18.30;99.90
28725;DHT22;43472;48.980;9.646;2023-07-13T00:15:40;18.20;99.90
28725;DHT22;43472;48.980;9.646;2023-07-13T00:20:42;18.10;99.90
28725;DHT22;43472;48.980;9.646;2023-07-13T00:25:45;17.90;99.90
28725;DHT22;43472;48.980;9.646;2023-07-13T00:30:47;17.80;99.90
28725;DHT22;43472;48.980;9.646;2023-07-13T00:35:50;17.60;99.90
28725;DHT22;43472;48.980;9.646;2023-07-13T00:40:52;17.60;99.90
28725;DHT22;43472;48.980;9.646;2023-07-13T00:56:03;17.40;99.90
28725;DHT22;43472;48.980;9.646;2023-07-13T01:01:05;17.40;99.90
28725;DHT22;43472;48.980;9.646;2023-07-13T01:06:08;17.30;99.90
28725;DHT22;43472;48.980;9.646;2023-07-13T01:11:11;17.20;99.90
28725;DHT22;43472;48.980;9.646;2023-07-13T01:16:24;17.40;99.90
28725;DHT22;43472;48.980;9.646;2023-07-13T01:21:29;17.50;99.90
28725;DHT22;43472;48.980;9.646;2023-07-13T01:26:31;17.40;99.90
28725;DHT22;43472;48.980;9.646;2023-07-13T01:31:34;17.30;99.90
28725;DHT22;43472;48.980;9.646;2023-07-13T01:36:36;17.30;99.90
28725;DHT22;43472;48.980;9.646;2023-07-13T01:41:38;17.10;99.90
28725;DHT22;43472;48.980;9.646;2023-07-13T01:46:43;17.00;99.90
28725;DHT22;43472;48.980;9.646;2023-07-13T01:51:45;17.00;99.90
28725;DHT22;43472;48.980;9.646;2023-07-13T01:56:46;17.20;99.90
28725;DHT22;43472;48.980;9.646;2023-07-13T02:01:49;16.80;99.90
28725;DHT22;43472;48.980;9.646;2023-07-13T02:06:51;16.60;99.90
28725;DHT22;43472;48.980;9.646;2023-07-13T02:11:56;16.50;99.90
28725;DHT22;43472;48.980;9.646;2023-07-13T02:16:58;16.70;99.90
28725;DHT22;43472;48.980;9.646;2023-07-13T02:22:00;16.30;99.90
28725;DHT22;43472;48.980;9.646;2023-07-13T02:27:02;16.20;99.90
28725;DHT22;43472;48.980;9.646;2023-07-13T02:32:05;16.10;99.90
28725;DHT22;43472;48.980;9.646;2023-07-13T02:37:07;16.30;99.90
28725;DHT22;43472;48.980;9.646;2023-07-13T02:42:10;16.20;99.90
28725;DHT22;43472;48.980;9.646;2023-07-13T02:47:13;15.60;99.90
28725;DHT22;43472;48.980;9.646;2023-07-13T02:52:16;16.10;99.90
28725;DHT22;43472;48.980;9.646;2023-07-13T02:57:18;15.70;99.90
28725;DHT22;43472;48.980;9.646;2023-07-13T03:02:21;15.40;99.90
28725;DHT22;43472;48.980;9.646;2023-07-13T03:07:23;15.30;99.90
28725;DHT22;43472;48.980;9.646;2023-07-13T03:12:25;15.10;99.90
28725;DHT22;43472;48.980;9.646;2023-07-13T03:17:27;15.20;99.90
28725;DHT22;43472;48.980;9.646;2023-07-13T03:22:29;15.10;99.90
28725;DHT22;43472;48.980;9.646;2023-07-13T03:27:33;15.10;99.90
28725;DHT22;43472;48.980;9.646;2023-07-13T03:32:36;15.20;99.90
28725;DHT22;43472;48.980;9.646;2023-07-13T03:37:38;15.10;99.90
28725;DHT22;43472;48.980;9.646;2023-07-13T03:42:46;15.00;99.90
28725;DHT22;43472;48.980;9.646;2023-07-13T03:47:48;15.10;99.90
28725;DHT22;43472;48.980;9.646;2023-07-13T03:52:49;14.90;99.90
28725;DHT22;43472;48.980;9.646;2023-07-13T03:58:32;15.00;99.90
28725;DHT22;43472;48.980;9.646;2023-07-13T04:03:35;15.10;99.90
28725;DHT22;43472;48.980;9.646;2023-07-13T04:08:37;15.20;99.90
28725;DHT22;43472;48.980;9.646;2023-07-13T04:13:39;15.20;99.90
28725;DHT22;43472;48.980;9.646;2023-07-13T04:18:41;15.20;99.90
28725;DHT22;43472;48.980;9.646;2023-07-13T04:23:43;15.30;99.90
28725;DHT22;43472;48.980;9.646;2023-07-13T04:28:47;15.40;99.90
28725;DHT22;43472;48.980;9.646;2023-07-13T04:33:49;15.40;99.90
28725;DHT22;43472;48.980;9.646;2023-07-13T04:38:53;15.40;99.90
28725;DHT22;43472;48.980;9.646;2023-07-13T04:43:58;15.40;99.90
28725;DHT22;43472;48.980;9.646;2023-07-13T04:49:03;15.30;99.90
28725;DHT22;43472;48.980;9.646;2023-07-13T04:54:05;15.40;99.90
28725;DHT22;43472;48.980;9.646;2023-07-13T04:59:09;15.60;99.90
28725;DHT22;43472;48.980;9.646;2023-07-13T05:04:11;15.80;99.90
28725;DHT22;43472;48.980;9.646;2023-07-13T05:09:15;15.90;99.90
28725;DHT22;43472;48.980;9.646;2023-07-13T05:14:20;15.80;99.90
28725;DHT22;43472;48.980;9.646;2023-07-13T05:19:22;15.70;99.90
28725;DHT22;43472;48.980;9.646;2023-07-13T05:24:27;15.80;99.90
28725;DHT22;43472;48.980;9.646;2023-07-13T05:29:29;16.30;99.90
28725;DHT22;43472;48.980;9.646;2023-07-13T05:34:31;16.20;99.90
28725;DHT22;43472;48.980;9.646;2023-07-13T05:39:53;16.50;99.90
28725;DHT22;43472;48.980;9.646;2023-07-13T05:45:34;16.60;99.90
28725;DHT22;43472;48.980;9.646;2023-07-13T05:51:12;16.60;99.90
28725;DHT22;43472;48.980;9.646;2023-07-13T05:56:20;16.70;99.90
28725;DHT22;43472;48.980;9.646;2023-07-13T06:01:35;16.80;99.90
28725;DHT22;43472;48.980;9.646;2023-07-13T06:06:42;16.80;99.90
28725;DHT22;43472;48.980;9.646;2023-07-13T06:17:48;17.60;99.90
28725;DHT22;43472;48.980;9.646;2023-07-13T06:23:10;17.60;99.90
28725;DHT22;43472;48.980;9.646;2023-07-13T06:29:02;17.60;99.90
28725;DHT22;43472;48.980;9.646;2023-07-13T06:34:10;17.70;99.90
28725;DHT22;43472;48.980;9.646;2023-07-13T06:39:33;17.80;99.90
28725;DHT22;43472;48.980;9.646;2023-07-13T06:55:27;18.60;99.90
28725;DHT22;43472;48.980;9.646;2023-07-13T07:00:35;18.60;99.90
28725;DHT22;43472;48.980;9.646;2023-07-13T07:05:49;18.80;99.90
28725;DHT22;43472;48.980;9.646;2023-07-13T07:11:13;19.40;99.90
28725;DHT22;43472;48.980;9.646;2023-07-13T07:16:43;19.70;99.90
28725;DHT22;43472;48.980;9.646;2023-07-13T07:28:03;19.70;99.90
28725;DHT22;43472;48.980;9.646;2023-07-13T07:33:35;19.90;99.90
28725;DHT22;43472;48.980;9.646;2023-07-13T07:44:14;20.20;99.90
28725;DHT22;43472;48.980;9.646;2023-07-13T07:49:28;20.30;99.90
28725;DHT22;43472;48.980;9.646;2023-07-13T07:54:52;20.90;99.90
28725;DHT22;43472;48.980;9.646;2023-07-13T08:00:50;21.40;99.90
28725;DHT22;43472;48.980;9.646;2023-07-13T08:07:03;21.20;99.90
28725;DHT22;43472;48.980;9.646;2023-07-13T08:13:01;21.40;99.90
28725;DHT22;43472;48.980;9.646;2023-07-13T08:18:40;21.90;99.90
28725;DHT22;43472;48.980;9.646;2023-07-13T08:24:14;22.00;99.90
28725;DHT22;43472;48.980;9.646;2023-07-13T08:29:38;22.20;99.00
28725;DHT22;43472;48.980;9.646;2023-07-13T08:34:55;22.10;99.20
28725;DHT22;43472;48.980;9.646;2023-07-13T08:40:12;22.40;99.90
28725;DHT22;43472;48.980;9.646;2023-07-13T08:45:54;22.60;98.80
28725;DHT22;43472;48.980;9.646;2023-07-13T08:52:02;22.30;99.00
28725;DHT22;43472;48.980;9.646;2023-07-13T08:57:32;22.50;98.40
28725;DHT22;43472;48.980;9.646;2023-07-13T09:02:57;22.80;98.60
28725;DHT22;43472;48.980;9.646;2023-07-13T09:14:24;23.00;96.30
28725;DHT22;43472;48.980;9.646;2023-07-13T09:19:46;23.10;96.40
28725;DHT22;43472;48.980;9.646;2023-07-13T09:25:30;23.50;94.70
28725;DHT22;43472;48.980;9.646;2023-07-13T09:31:04;23.80;95.60
28725;DHT22;43472;48.980;9.646;2023-07-13T09:36:37;23.90;93.80
28725;DHT22;43472;48.980;9.646;2023-07-13T09:42:32;23.40;95.00
28725;DHT22;43472;48.980;9.646;2023-07-13T09:48:13;23.90;92.60
28725;DHT22;43472;48.980;9.646;2023-07-13T09:53:18;23.90;92.80
28725;DHT22;43472;48.980;9.646;2023-07-13T09:58:30;23.90;92.10
28725;DHT22;43472;48.980;9.646;2023-07-13T10:04:35;24.10;93.10
28725;DHT22;43472;48.980;9.646;2023-07-13T10:10:17;24.10;92.70
28725;DHT22;43472;48.980;9.646;2023-07-13T10:15:46;24.30;92.20
28725;DHT22;43472;48.980;9.646;2023-07-13T10:21:27;24.70;91.20
28725;DHT22;43472;48.980;9.646;2023-07-13T10:27:20;24.80;91.00
28725;DHT22;43472;48.980;9.646;2023-07-13T10:33:08;25.10;88.70
28725;DHT22;43472;48.980;9.646;2023-07-13T10:38:43;25.10;89.60
28725;DHT22;43472;48.980;9.646;2023-07-13T10:56:28;25.00;90.70
28725;DHT22;43472;48.980;9.646;2023-07-13T11:02:26;25.20;90.40
28725;DHT22;43472;48.980;9.646;2023-07-13T11:08:16;25.00;90.70
28725;DHT22;43472;48.980;9.646;2023-07-13T11:14:05;25.00;90.20
28725;DHT22;43472;48.980;9.646;2023-07-13T11:20:30;24.50;90.30
28725;DHT22;43472;48.980;9.646;2023-07-13T11:31:38;25.10;85.30
28725;DHT22;43472;48.980;9.646;2023-07-13T11:37:15;24.90;85.70
28725;DHT22;43472;48.980;9.646;2023-07-13T11:48:16;25.30;83.10
28725;DHT22;43472;48.980;9.646;2023-07-13T11:53:46;25.30;83.50
28725;DHT22;43472;48.980;9.646;2023-07-13T11:58:51;26.00;83.20
28725;DHT22;43472;48.980;9.646;2023-07-13T12:03:54;26.50;85.10
28725;DHT22;43472;48.980;9.646;2023-07-13T12:08:58;25.90;84.00
28725;DHT22;43472;48.980;9.646;2023-07-13T12:14:02;25.30;87.80
28725;DHT22;43472;48.980;9.646;2023-07-13T12:19:17;25.20;87.90
28725;DHT22;43472;48.980;9.646;2023-07-13T12:24:21;26.60;85.70
28725;DHT22;43472;48.980;9.646;2023-07-13T12:29:25;26.50;85.40
28725;DHT22;43472;48.980;9.646;2023-07-13T12:34:27;26.90;84.10
28725;DHT22;43472;48.980;9.646;2023-07-13T12:39:36;26.40;84.70
28725;DHT22;43472;48.980;9.646;2023-07-13T12:44:42;26.60;80.10
28725;DHT22;43472;48.980;9.646;2023-07-13T12:49:56;26.20;82.00
28725;DHT22;43472;48.980;9.646;2023-07-13T12:55:05;26.90;79.40
28725;DHT22;43472;48.980;9.646;2023-07-13T13:05:27;27.40;82.90
28725;DHT22;43472;48.980;9.646;2023-07-13T13:10:29;27.10;82.30
28725;DHT22;43472;48.980;9.646;2023-07-13T13:15:32;27.00;81.60
28725;DHT22;43472;48.980;9.646;2023-07-13T13:20:35;27.10;83.30
28725;DHT22;43472;48.980;9.646;2023-07-13T13:25:38;27.10;83.80
28725;DHT22;43472;48.980;9.646;2023-07-13T13:30:40;27.10;78.20
28725;DHT22;43472;48.980;9.646;2023-07-13T13:35:43;26.50;77.70
28725;DHT22;43472;48.980;9.646;2023-07-13T13:40:45;26.50;80.00
28725;DHT22;43472;48.980;9.646;2023-07-13T13:45:48;26.30;81.10
28725;DHT22;43472;48.980;9.646;2023-07-13T13:50:50;26.90;75.80
28725;DHT22;43472;48.980;9.646;2023-07-13T13:55:52;27.20;80.00
28725;DHT22;43472;48.980;9.646;2023-07-13T14:00:54;27.20;79.50
28725;DHT22;43472;48.980;9.646;2023-07-13T14:05:57;27.40;76.80
28725;DHT22;43472;48.980;9.646;2023-07-13T14:10:59;26.90;77.50
28725;DHT22;43472;48.980;9.646;2023-07-13T14:16:02;27.00;78.50
28725;DHT22;43472;48.980;9.646;2023-07-13T14:21:12;26.20;78.20
28725;DHT22;43472;48.980;9.646;2023-07-13T14:26:17;26.20;79.00
28725;DHT22;43472;48.980;9.646;2023-07-13T14:31:20;26.60;77.70
28725;DHT22;43472;48.980;9.646;2023-07-13T14:36:38;26.50;80.00
28725;DHT22;43472;48.980;9.646;2023-07-13T14:41:41;26.80;79.00
28725;DHT22;43472;48.980;9.646;2023-07-13T14:46:45;26.50;79.90
28725;DHT22;43472;48.980;9.646;2023-07-13T14:51:48;26.90;78.50
28725;DHT22;43472;48.980;9.646;2023-07-13T14:56:50;26.30;79.40
28725;DHT22;43472;48.980;9.646;2023-07-13T15:01:52;26.60;81.00
28725;DHT22;43472;48.980;9.646;2023-07-13T15:07:02;25.80;80.50
28725;DHT22;43472;48.980;9.646;2023-07-13T15:12:04;25.70;79.60
28725;DHT22;43472;48.980;9.646;2023-07-13T15:17:34;25.70;80.00
28725;DHT22;43472;48.980;9.646;2023-07-13T15:22:38;25.70;79.50
28725;DHT22;43472;48.980;9.646;2023-07-13T15:27:40;25.80;81.20
28725;DHT22;43472;48.980;9.646;2023-07-13T15:32:43;26.40;79.20
28725;DHT22;43472;48.980;9.646;2023-07-13T15:37:46;25.70;81.20
28725;DHT22;43472;48.980;9.646;2023-07-13T15:42:49;25.90;81.20
28725;DHT22;43472;48.980;9.646;2023-07-13T15:52:58;26.60;77.80
28725;DHT22;43472;48.980;9.646;2023-07-13T15:58:03;26.40;78.40
28725;DHT22;43472;48.980;9.646;2023-07-13T16:03:52;26.50;77.20
28725;DHT22;43472;48.980;9.646;2023-07-13T16:20:17;26.40;75.60
28725;DHT22;43472;48.980;9.646;2023-07-13T16:26:42;25.70;75.00
28725;DHT22;43472;48.980;9.646;2023-07-13T16:37:59;25.50;79.00
28725;DHT22;43472;48.980;9.646;2023-07-13T16:43:30;25.10;81.00
28725;DHT22;43472;48.980;9.646;2023-07-13T16:49:47;25.10;81.30
28725;DHT22;43472;48.980;9.646;2023-07-13T17:14:36;24.70;76.90
28725;DHT22;43472;48.980;9.646;2023-07-13T17:20:14;24.50;80.00
28725;DHT22;43472;48.980;9.646;2023-07-13T17:32:24;24.30;82.00
28725;DHT22;43472;48.980;9.646;2023-07-13T17:37:44;24.40;79.90
28725;DHT22;43472;48.980;9.646;2023-07-13T17:42:48;24.20;81.20
28725;DHT22;43472;48.980;9.646;2023-07-13T17:47:50;24.10;82.40
28725;DHT22;43472;48.980;9.646;2023-07-13T17:52:54;24.10;82.40
28725;DHT22;43472;48.980;9.646;2023-07-13T17:57:57;24.10;82.60
28725;DHT22;43472;48.980;9.646;2023-07-13T18:03:16;24.00;83.90
28725;DHT22;43472;48.980;9.646;2023-07-13T18:08:31;23.90;83.10
28725;DHT22;43472;48.980;9.646;2023-07-13T18:13:34;23.80;83.40
28725;DHT22;43472;48.980;9.646;2023-07-13T18:18:42;23.70;83.90
28725;DHT22;43472;48.980;9.646;2023-07-13T18:23:46;23.50;85.30
28725;DHT22;43472;48.980;9.646;2023-07-13T18:28:48;23.50;84.30
28725;DHT22;43472;48.980;9.646;2023-07-13T18:33:53;23.30;84.80
28725;DHT22;43472;48.980;9.646;2023-07-13T18:38:56;23.20;84.60
28725;DHT22;43472;48.980;9.646;2023-07-13T18:43:59;23.10;87.80
28725;DHT22;43472;48.980;9.646;2023-07-13T18:49:02;23.00;89.60
28725;DHT22;43472;48.980;9.646;2023-07-13T18:54:13;22.70;91.10
28725;DHT22;43472;48.980;9.646;2023-07-13T18:59:16;22.40;91.60
28725;DHT22;43472;48.980;9.646;2023-07-13T19:04:29;22.10;91.70
28725;DHT22;43472;48.980;9.646;2023-07-13T19:09:32;22.10;91.40
28725;DHT22;43472;48.980;9.646;2023-07-13T19:14:35;21.80;92.50
28725;DHT22;43472;48.980;9.646;2023-07-13T19:19:37;21.60;92.90
28725;DHT22;43472;48.980;9.646;2023-07-13T19:24:39;21.50;93.40
28725;DHT22;43472;48.980;9.646;2023-07-13T19:29:41;21.50;92.40
28725;DHT22;43472;48.980;9.646;2023-07-13T19:34:44;21.30;94.00
28725;DHT22;43472;48.980;9.646;2023-07-13T19:39:45;21.20;94.80
28725;DHT22;43472;48.980;9.646;2023-07-13T19:44:48;21.00;95.00
28725;DHT22;43472;48.980;9.646;2023-07-13T19:49:51;20.90;94.90
28725;DHT22;43472;48.980;9.646;2023-07-13T19:54:57;20.80;94.90
28725;DHT22;43472;48.980;9.646;2023-07-13T19:59:59;20.70;96.10
28725;DHT22;43472;48.980;9.646;2023-07-13T20:05:04;20.20;96.80
28725;DHT22;43472;48.980;9.646;2023-07-13T20:10:22;20.10;97.30
28725;DHT22;43472;48.980;9.646;2023-07-13T20:15:26;20.10;96.80
28725;DHT22;43472;48.980;9.646;2023-07-13T20:20:37;20.00;97.40
28725;DHT22;43472;48.980;9.646;2023-07-13T20:25:55;20.10;97.50
28725;DHT22;43472;48.980;9.646;2023-07-13T20:36:05;19.90;98.60
28725;DHT22;43472;48.980;9.646;2023-07-13T20:41:10;19.70;99.10
28725;DHT22;43472;48.980;9.646;2023-07-13T20:46:15;19.60;99.30
28725;DHT22;43472;48.980;9.646;2023-07-13T20:51:19;19.50;99.10
28725;DHT22;43472;48.980;9.646;2023-07-13T20:56:27;19.50;98.90
28725;DHT22;43472;48.980;9.646;2023-07-13T21:01:35;19.40;99.10
28725;DHT22;43472;48.980;9.646;2023-07-13T21:11:53;19.20;99.90
28725;DHT22;43472;48.980;9.646;2023-07-13T21:16:56;19.10;99.90
28725;DHT22;43472;48.980;9.646;2023-07-13T21:21:58;19.00;99.90
28725;DHT22;43472;48.980;9.646;2023-07-13T21:27:01;19.00;99.90
28725;DHT22;43472;48.980;9.646;2023-07-13T21:32:16;18.90;99.90
28725;DHT22;43472;48.980;9.646;2023-07-13T21:37:23;18.90;99.90
28725;DHT22;43472;48.980;9.646;2023-07-13T21:42:25;18.80;99.90
28725;DHT22;43472;48.980;9.646;2023-07-13T21:47:27;18.80;99.90
28725;DHT22;43472;48.980;9.646;2023-07-13T21:52:29;18.70;99.90
28725;DHT22;43472;48.980;9.646;2023-07-13T21:57:31;18.50;99.90
28725;DHT22;43472;48.980;9.646;2023-07-13T22:02:32;18.50;99.90
28725;DHT22;43472;48.980;9.646;2023-07-13T22:07:34;18.50;99.90
28725;DHT22;43472;48.980;9.646;2023-07-13T22:12:39;18.30;99.90
28725;DHT22;43472;48.980;9.646;2023-07-13T22:17:46;18.40;99.90
28725;DHT22;43472;48.980;9.646;2023-07-13T22:22:49;18.30;99.90
28725;DHT22;43472;48.980;9.646;2023-07-13T22:27:53;18.20;99.90
28725;DHT22;43472;48.980;9.646;2023-07-13T22:32:57;18.10;99.90
28725;DHT22;43472;48.980;9.646;2023-07-13T22:38:00;18.10;99.90
28725;DHT22;43472;48.980;9.646;2023-07-13T22:43:23;17.90;99.90
28725;DHT22;43472;48.980;9.646;2023-07-13T22:48:41;17.90;99.90
28725;DHT22;43472;48.980;9.646;2023-07-13T22:53:45;17.80;99.90
28725;DHT22;43472;48.980;9.646;2023-07-13T22:58:47;17.80;99.90
28725;DHT22;43472;48.980;9.646;2023-07-13T23:03:50;17.60;99.90
28725;DHT22;43472;48.980;9.646;2023-07-13T23:08:53;17.70;99.90
28725;DHT22;43472;48.980;9.646;2023-07-13T23:13:56;17.60;99.90
28725;DHT22;43472;48.980;9.646;2023-07-13T23:19:02;17.70;99.90
28725;DHT22;43472;48.980;9.646;2023-07-13T23:24:08;17.50;99.90
28725;DHT22;43472;48.980;9.646;2023-07-13T23:29:11;17.30;99.90
28725;DHT22;43472;48.980;9.646;2023-07-13T23:34:16;17.20;99.90
28725;DHT22;43472;48.980;9.646;2023-07-13T23:39:19;17.30;99.90
28725;DHT22;43472;48.980;9.646;2023-07-13T23:44:21;17.20;99.90
28725;DHT22;43472;48.980;9.646;2023-07-13T23:49:27;16.90;99.90
28725;DHT22;43472;48.980;9.646;2023-07-13T23:54:32;16.70;99.90
28725;DHT22;43472;48.980;9.646;2023-07-13T23:59:34;16.80;99.90
